首页
METAR-TAF:

METAR-TAF

机场 :

威靈頓國際機場

惠灵顿, 新西兰

纬度: 41-20S, 经度: 174-48E, 海拔: 12米

当前天气观测

该预报发布于41分钟前的00:30 UTC
风速11节,风向
温度 13°C
湿度 67%
气压 1024 hPa
能见度10公里或以上

METAR: NZWN 270030Z AUTO 17011KT 9999 FEW029/// 13/07 Q1024 NOSIG

时间: 13:11 (01:11 UTC)

预报

该预报发布于2小时和9分钟前的23:02 UTC
预报有效从27日的 00点(UTC)到 28日的 00点(UTC)
风速15节,风向
能见度10公里或以上
散云层高于2500英尺
成为
从 27日的 10点(UTC)到 27日的 12点(UTC)
风速5节,风向南转南东
短暂存在
从 27日的 10点(UTC)到 27日的 16点(UTC)
多云层高于1400英尺

TAF: NZWN 262302Z 2700/2800 18015KT 9999 SCT025 BECMG 2710/2712 16005KT TEMPO 2710/2716 BKN014

超过4000个机场的气象观测和天气预报(METAR&TAF报告)。

可查询的气象台以黄色和红色小点在地图上表示。

将鼠标移到小点上方,可查看气象台名称。

然后点击查看天气观测和预报。

如需切换地图:点击带黑十字的绿色按钮放大地图;点击带横线的绿色按钮缩小地图;或者点击绿色箭头查看邻近地区的地图。


METAR-TAF: